createdAt,value
2022-12-27T00:01:01.939Z,113.53
2022-12-27T00:03:29.157Z,123.85
2022-12-27T00:05:56.308Z,121.43
2022-12-27T00:08:23.406Z,119.22
2022-12-27T00:10:50.500Z,102.47
2022-12-27T00:13:17.562Z,107.85
2022-12-27T00:15:44.812Z,107.13
2022-12-27T00:18:11.884Z,104.70
2022-12-27T00:20:39.214Z,110.80
2022-12-27T00:23:06.738Z,112.85
2022-12-27T00:25:34.365Z,104.57
2022-12-27T00:28:01.459Z,101.15
2022-12-27T00:30:28.578Z,104.85
2022-12-27T00:32:55.706Z,103.47
2022-12-27T00:35:23.323Z,102.38
2022-12-27T00:37:50.507Z,100.55
2022-12-27T00:40:17.662Z,112.07
2022-12-27T00:42:44.735Z,105.82
2022-12-27T00:45:11.802Z,104.88
2022-12-27T00:47:38.908Z,102.82
2022-12-27T00:50:06.494Z,100.70
2022-12-27T00:52:33.671Z,107.70
2022-12-27T00:55:00.770Z,103.20
2022-12-27T00:57:27.864Z,92.68
2022-12-27T00:59:54.965Z,99.00
2022-12-27T01:02:22.113Z,102.97
2022-12-27T01:04:49.347Z,100.25
2022-12-27T01:07:16.449Z,105.20
2022-12-27T01:09:43.583Z,101.63
2022-12-27T01:12:10.701Z,95.43
2022-12-27T01:14:37.824Z,109.38
2022-12-27T01:17:05.442Z,98.15
2022-12-27T01:19:36.251Z,105.13
2022-12-27T01:22:04.093Z,105.32
2022-12-27T01:24:31.985Z,106.80
2022-12-27T01:26:59.735Z,108.90
2022-12-27T01:29:26.975Z,106.90
2022-12-27T01:31:54.072Z,109.95
2022-12-27T01:34:21.193Z,106.90
2022-12-27T01:36:48.359Z,107.47
2022-12-27T01:39:15.450Z,105.90
2022-12-27T01:42:02.916Z,99.40
2022-12-27T01:44:51.513Z,113.10
2022-12-27T01:47:22.316Z,98.68
2022-12-27T01:50:11.824Z,108.53
2022-12-27T01:52:54.266Z,109.25
2022-12-27T01:55:27.359Z,97.85
2022-12-27T01:57:59.335Z,98.63
2022-12-27T02:00:26.467Z,99.30
2022-12-27T02:02:53.882Z,101.38
2022-12-27T02:05:23.334Z,97.38
2022-12-27T02:08:24.554Z,116.28
2022-12-27T02:10:52.745Z,107.55
2022-12-27T02:13:20.493Z,112.25
2022-12-27T02:15:47.625Z,105.65
2022-12-27T02:18:15.251Z,110.28
2022-12-27T02:21:06.617Z,107.72
2022-12-27T02:24:02.903Z,104.50
2022-12-27T02:26:45.217Z,101.47
2022-12-27T02:29:41.285Z,100.35
2022-12-27T02:32:43.989Z,112.25
2022-12-27T02:35:23.364Z,94.07
2022-12-27T02:38:02.475Z,96.90
2022-12-27T02:40:50.954Z,103.45
2022-12-27T02:43:36.851Z,96.10
2022-12-27T02:46:30.562Z,107.60
2022-12-27T02:49:17.605Z,102.32
2022-12-27T02:52:24.607Z,110.90
2022-12-27T02:55:03.469Z,105.03
2022-12-27T02:57:40.091Z,112.60
2022-12-27T03:00:28.611Z,96.32
2022-12-27T03:03:25.564Z,96.22
2022-12-27T03:06:33.232Z,103.88
2022-12-27T03:09:12.151Z,94.10
2022-12-27T03:12:08.727Z,103.55
2022-12-27T03:15:04.103Z,92.32
2022-12-27T03:17:44.345Z,83.20
2022-12-27T03:20:34.299Z,86.30
2022-12-27T03:23:22.253Z,89.47
2022-12-27T03:25:52.627Z,100.82
2022-12-27T03:28:44.773Z,83.80
2022-12-27T03:31:37.902Z,88.97
2022-12-27T03:34:38.818Z,92.57
2022-12-27T03:37:28.768Z,94.50
2022-12-27T03:40:07.880Z,89.50
2022-12-27T03:43:02.775Z,98.10
2022-12-27T03:45:57.922Z,91.60
2022-12-27T03:48:26.652Z,99.32
2022-12-27T03:50:57.413Z,90.15
2022-12-27T03:53:43.330Z,89.75
2022-12-27T03:56:11.383Z,92.32
2022-12-27T03:58:38.464Z,94.68
2022-12-27T04:01:05.863Z,90.22
2022-12-27T04:03:33.912Z,92.35
2022-12-27T04:06:01.033Z,99.82
2022-12-27T04:08:46.518Z,96.85
2022-12-27T04:11:31.936Z,96.43
2022-12-27T04:14:17.323Z,93.72
2022-12-27T04:17:03.295Z,88.60
2022-12-27T04:19:48.809Z,98.72
2022-12-27T04:22:34.566Z,88.38
2022-12-27T04:25:20.251Z,90.88
2022-12-27T04:28:05.596Z,88.55
2022-12-27T04:30:51.212Z,88.10
2022-12-27T04:33:36.631Z,85.72
2022-12-27T04:36:06.428Z,84.55
2022-12-27T04:38:33.817Z,85.63
2022-12-27T04:41:19.352Z,85.35
2022-12-27T04:44:05.705Z,88.95
2022-12-27T04:46:51.653Z,90.45
2022-12-27T04:49:44.797Z,79.95
2022-12-27T04:52:39.118Z,100.07
2022-12-27T04:57:51.084Z,70.28
2022-12-27T05:00:39.333Z,74.32
2022-12-27T05:03:10.421Z,92.03
2022-12-27T05:05:38.964Z,122.18
2022-12-27T05:08:26.004Z,138.70
2022-12-27T05:11:11.764Z,121.55
2022-12-27T05:13:57.762Z,167.93
2022-12-27T05:16:25.587Z,231.52
2022-12-27T05:18:53.376Z,196.48
2022-12-27T05:21:20.592Z,172.75
2022-12-27T05:24:06.179Z,430.02
2022-12-27T05:26:34.396Z,102.32
2022-12-27T05:29:01.854Z,270.38
2022-12-27T05:31:29.792Z,221.15
2022-12-27T05:33:57.341Z,322.50
2022-12-27T05:36:25.443Z,242.60
2022-12-27T05:38:52.795Z,370.27
2022-12-27T05:41:19.920Z,593.90
2022-12-27T05:43:47.043Z,290.58
2022-12-27T05:46:17.649Z,302.42
2022-12-27T05:48:45.223Z,132.95
2022-12-27T05:51:18.395Z,125.28
2022-12-27T05:53:46.117Z,176.98
2022-12-27T05:56:18.565Z,134.02
2022-12-27T05:58:45.697Z,377.27
2022-12-27T06:01:16.633Z,164.25
2022-12-27T06:03:44.399Z,136.25
2022-12-27T06:06:13.192Z,142.50
2022-12-27T06:08:40.352Z,125.53
2022-12-27T06:11:13.578Z,73.95
2022-12-27T06:13:42.765Z,133.07
2022-12-27T06:16:12.012Z,90.60
2022-12-27T06:18:40.956Z,94.03
2022-12-27T06:21:11.434Z,107.38
2022-12-27T06:23:41.320Z,81.32
2022-12-27T06:26:12.159Z,78.57
2022-12-27T06:28:39.371Z,69.82
2022-12-27T06:31:06.518Z,77.38
2022-12-27T06:33:33.883Z,137.45
2022-12-27T06:36:13.166Z,78.07
2022-12-27T06:38:40.744Z,87.82
2022-12-27T06:41:10.460Z,66.10
2022-12-27T06:43:38.367Z,87.63
2022-12-27T06:46:11.238Z,64.80
2022-12-27T06:48:40.831Z,56.22
2022-12-27T06:51:10.130Z,57.38
2022-12-27T06:53:37.670Z,54.67
2022-12-27T06:56:06.375Z,50.28
2022-12-27T06:58:33.596Z,45.83
2022-12-27T07:01:08.458Z,52.95
2022-12-27T07:03:36.978Z,55.42
2022-12-27T07:06:07.195Z,54.85
2022-12-27T07:08:37.684Z,56.42
2022-12-27T07:11:10.850Z,57.35
2022-12-27T07:13:40.704Z,58.95
2022-12-27T07:16:09.676Z,58.70
2022-12-27T07:18:37.287Z,66.38
2022-12-27T07:21:09.853Z,93.70
2022-12-27T07:23:37.610Z,69.72
2022-12-27T07:26:08.120Z,191.48
2022-12-27T07:28:35.925Z,126.00
2022-12-27T07:31:23.975Z,139.27
2022-12-27T07:33:51.754Z,113.35
2022-12-27T07:36:24.897Z,269.90
2022-12-27T07:38:52.347Z,120.63
2022-12-27T07:41:20.054Z,85.32
2022-12-27T07:43:47.820Z,110.85
2022-12-27T07:46:18.521Z,169.13
2022-12-27T07:48:46.018Z,212.88
2022-12-27T07:51:14.372Z,97.72
2022-12-27T07:53:41.684Z,131.50
2022-12-27T07:56:12.292Z,71.53
2022-12-27T07:58:44.599Z,103.70
2022-12-27T08:01:13.345Z,73.63
2022-12-27T08:03:40.890Z,78.30
2022-12-27T08:06:18.604Z,74.55
2022-12-27T08:08:46.415Z,39.40
2022-12-27T08:11:13.780Z,39.47
2022-12-27T08:13:40.907Z,46.83
2022-12-27T08:16:16.110Z,56.35
2022-12-27T08:18:43.389Z,48.28
2022-12-27T08:21:10.463Z,44.58
2022-12-27T08:23:37.751Z,41.85
2022-12-27T08:26:08.175Z,40.95
2022-12-27T08:28:35.557Z,42.08
2022-12-27T08:31:06.938Z,42.50
2022-12-27T08:33:34.190Z,43.58
2022-12-27T08:36:53.483Z,43.63
2022-12-27T08:38:55.560Z,41.93
2022-12-27T08:41:23.581Z,39.55
2022-12-27T08:43:50.689Z,38.65
2022-12-27T08:46:19.554Z,41.00
2022-12-27T08:48:48.766Z,38.33
2022-12-27T08:51:24.800Z,43.78
2022-12-27T08:53:58.729Z,39.13
2022-12-27T08:56:25.825Z,38.08
2022-12-27T08:58:52.905Z,40.78
2022-12-27T09:01:20.242Z,40.65
2022-12-27T09:03:47.404Z,58.35
2022-12-27T09:06:17.925Z,52.05
2022-12-27T09:08:47.105Z,41.33
2022-12-27T09:11:34.444Z,39.72
2022-12-27T09:14:03.842Z,37.33
2022-12-27T09:16:31.844Z,38.55
2022-12-27T09:18:59.207Z,40.53
2022-12-27T09:21:29.893Z,39.17
2022-12-27T09:23:57.514Z,45.63
2022-12-27T09:26:29.143Z,37.47
2022-12-27T09:28:57.431Z,38.22
2022-12-27T09:31:25.547Z,37.53
2022-12-27T09:33:53.151Z,35.35
2022-12-27T09:36:22.843Z,40.60
2022-12-27T09:38:52.638Z,33.33
2022-12-27T09:42:33.172Z,37.08
2022-12-27T09:44:23.784Z,37.03
2022-12-27T09:47:03.950Z,39.40
2022-12-27T09:49:35.995Z,39.15
2022-12-27T09:52:27.018Z,35.92
2022-12-27T09:55:04.803Z,38.88
2022-12-27T09:57:43.754Z,35.83
2022-12-27T10:00:35.138Z,35.83
2022-12-27T10:03:05.940Z,33.10
2022-12-27T10:05:37.103Z,38.90
2022-12-27T10:08:30.487Z,33.80
2022-12-27T10:11:38.560Z,39.78
2022-12-27T10:14:35.770Z,34.13
2022-12-27T10:17:19.991Z,40.53
2022-12-27T10:20:04.388Z,34.83
2022-12-27T10:22:35.022Z,41.95
2022-12-27T10:25:11.181Z,33.83
2022-12-27T10:27:39.938Z,35.10
2022-12-27T10:30:15.341Z,35.47
2022-12-27T10:32:43.620Z,36.95
2022-12-27T10:35:16.211Z,31.98
2022-12-27T10:37:44.871Z,32.65
2022-12-27T10:40:41.518Z,33.28
2022-12-27T10:43:33.618Z,34.20
2022-12-27T10:46:35.696Z,33.60
2022-12-27T10:49:20.639Z,34.50
2022-12-27T10:51:51.205Z,34.88
2022-12-27T10:54:25.377Z,33.70
2022-12-27T10:56:53.604Z,35.28
2022-12-27T10:59:28.744Z,36.10
2022-12-27T11:02:01.856Z,37.60
2022-12-27T11:04:31.115Z,35.47
2022-12-27T11:07:04.134Z,35.13
2022-12-27T11:09:31.349Z,36.35
2022-12-27T11:12:30.611Z,33.65
2022-12-27T11:15:04.609Z,30.52
2022-12-27T11:17:43.966Z,32.88
2022-12-27T11:20:30.725Z,37.70
2022-12-27T11:23:18.352Z,33.40
2022-12-27T11:26:00.229Z,31.65
2022-12-27T11:28:41.900Z,34.63
2022-12-27T11:31:15.262Z,33.47
2022-12-27T11:33:49.081Z,34.65
2022-12-27T11:36:26.815Z,30.60
2022-12-27T11:38:54.267Z,32.08
2022-12-27T11:41:40.366Z,35.28
2022-12-27T11:44:22.169Z,35.50
2022-12-27T11:47:07.687Z,34.38
2022-12-27T11:49:45.844Z,34.78
2022-12-27T11:52:16.261Z,37.83
2022-12-27T11:55:07.072Z,33.65
2022-12-27T11:57:36.927Z,36.10
2022-12-27T12:00:16.180Z,36.83
2022-12-27T12:02:49.064Z,32.92
2022-12-27T12:05:39.196Z,41.53
2022-12-27T12:08:09.228Z,36.28
2022-12-27T12:11:12.595Z,33.88
2022-12-27T12:14:20.981Z,39.38
2022-12-27T12:17:36.254Z,37.22
2022-12-27T12:20:25.370Z,36.63
2022-12-27T12:23:22.334Z,40.25
2022-12-27T12:26:17.995Z,38.90
2022-12-27T12:29:01.095Z,40.35
2022-12-27T12:31:50.078Z,39.42
2022-12-27T12:34:39.741Z,36.47
2022-12-27T12:37:25.117Z,44.15
2022-12-27T12:40:06.705Z,38.85
2022-12-27T12:42:42.803Z,41.80
2022-12-27T12:45:38.075Z,42.40
2022-12-27T12:48:19.789Z,40.25
2022-12-27T12:50:50.524Z,37.95
2022-12-27T12:53:28.198Z,36.10
2022-12-27T12:56:15.422Z,37.83
2022-12-27T12:59:01.062Z,34.85
2022-12-27T13:01:48.483Z,37.75
2022-12-27T13:04:55.352Z,40.63
2022-12-27T13:08:13.059Z,35.20
2022-12-27T13:11:06.720Z,36.47
2022-12-27T13:14:00.291Z,36.17
2022-12-27T13:16:48.898Z,37.33
2022-12-27T13:19:40.960Z,38.30
2022-12-27T13:22:17.250Z,43.95
2022-12-27T13:25:15.716Z,43.72
2022-12-27T13:28:14.882Z,40.10
2022-12-27T13:30:51.936Z,45.95
2022-12-27T13:34:00.364Z,43.38
2022-12-27T13:36:51.527Z,44.95
2022-12-27T13:39:41.210Z,47.30
2022-12-27T13:42:27.482Z,49.28
2022-12-27T13:45:09.290Z,47.60
2022-12-27T13:47:52.133Z,45.95
2022-12-27T13:50:37.647Z,50.92
2022-12-27T13:53:27.324Z,49.50
2022-12-27T13:56:51.400Z,48.95
2022-12-27T13:59:33.878Z,51.40
2022-12-27T14:02:23.152Z,53.15
2022-12-27T14:04:54.626Z,50.60
2022-12-27T14:08:09.557Z,51.15
2022-12-27T14:10:55.225Z,51.05
2022-12-27T14:13:34.034Z,51.13
2022-12-27T14:16:31.318Z,48.33
2022-12-27T14:19:20.706Z,50.90
2022-12-27T14:21:56.808Z,49.92
2022-12-27T14:25:04.711Z,53.10
2022-12-27T14:27:56.326Z,50.63
2022-12-27T14:30:56.828Z,50.65
2022-12-27T14:34:07.013Z,45.80
2022-12-27T14:36:46.240Z,49.85
2022-12-27T14:39:34.753Z,53.75
2022-12-27T14:42:39.926Z,54.23
2022-12-27T14:45:56.988Z,47.85
2022-12-27T14:48:52.810Z,56.80
2022-12-27T14:52:01.104Z,56.53
2022-12-27T14:54:57.282Z,56.70
2022-12-27T14:57:39.644Z,78.65
2022-12-27T15:00:18.968Z,70.93
2022-12-27T15:02:58.451Z,64.72
2022-12-27T15:05:44.066Z,57.95
2022-12-27T15:08:55.356Z,65.43
2022-12-27T15:11:31.320Z,61.50
2022-12-27T15:14:24.210Z,64.95
2022-12-27T15:17:13.073Z,62.33
2022-12-27T15:20:19.743Z,73.82
2022-12-27T15:23:13.364Z,56.30
2022-12-27T15:25:52.207Z,64.47
2022-12-27T15:28:48.508Z,66.35
2022-12-27T15:31:34.090Z,71.20
2022-12-27T15:34:13.150Z,77.95
2022-12-27T15:36:46.484Z,73.03
2022-12-27T15:39:35.401Z,73.60
2022-12-27T15:42:14.369Z,79.03
2022-12-27T15:44:50.206Z,78.50
2022-12-27T15:47:23.051Z,87.32
2022-12-27T15:50:11.542Z,87.77
2022-12-27T15:52:47.619Z,81.43
2022-12-27T15:55:19.327Z,75.47
2022-12-27T15:58:19.208Z,82.30
2022-12-27T16:01:25.808Z,86.43
2022-12-27T16:03:55.816Z,90.03
2022-12-27T16:06:34.951Z,88.97
2022-12-27T16:09:20.591Z,96.43
2022-12-27T16:12:03.943Z,98.30
2022-12-27T16:14:33.978Z,96.07
2022-12-27T16:17:46.157Z,86.90
2022-12-27T16:20:17.085Z,90.88
2022-12-27T16:23:13.325Z,83.65
2022-12-27T16:25:41.435Z,93.15
2022-12-27T16:28:25.362Z,99.80
2022-12-27T16:33:26.454Z,88.82
2022-12-27T16:36:07.052Z,93.18
2022-12-27T16:38:34.807Z,91.38
2022-12-27T16:41:54.071Z,97.53
2022-12-27T16:44:30.699Z,96.53
2022-12-27T16:47:23.335Z,89.13
2022-12-27T16:50:01.979Z,98.72
2022-12-27T16:53:16.495Z,101.10
2022-12-27T16:56:01.278Z,90.25
2022-12-27T16:58:31.198Z,96.70
2022-12-27T17:01:04.363Z,85.57
2022-12-27T17:03:38.275Z,90.35
2022-12-27T17:06:33.471Z,93.95
2022-12-27T17:09:21.533Z,102.97
2022-12-27T17:11:51.486Z,94.45
2022-12-27T17:14:25.260Z,98.28
2022-12-27T17:16:58.538Z,91.20
2022-12-27T17:19:44.282Z,100.97
2022-12-27T17:22:15.574Z,99.00
2022-12-27T17:24:45.409Z,100.65
2022-12-27T17:27:32.464Z,90.90
2022-12-27T17:30:06.624Z,94.68
2022-12-27T17:33:09.357Z,94.60
2022-12-27T17:35:48.260Z,90.80
2022-12-27T17:38:23.474Z,86.00
2022-12-27T17:41:15.725Z,90.55
2022-12-27T17:44:34.634Z,85.75
2022-12-27T17:47:15.202Z,99.03
2022-12-27T17:49:43.246Z,91.45
2022-12-27T17:52:35.634Z,89.18
2022-12-27T17:55:42.800Z,82.47
2022-12-27T17:58:16.085Z,90.00
2022-12-27T18:00:54.520Z,89.10
2022-12-27T18:03:23.330Z,97.22
2022-12-27T18:05:50.538Z,90.22
2022-12-27T18:08:24.981Z,92.15
2022-12-27T18:10:52.186Z,89.70
2022-12-27T18:13:22.743Z,88.35
2022-12-27T18:15:50.745Z,86.30
2022-12-27T18:18:28.360Z,91.32
2022-12-27T18:20:59.469Z,91.53
2022-12-27T18:23:27.363Z,90.45
2022-12-27T18:26:07.842Z,84.10
2022-12-27T18:28:38.759Z,85.32
2022-12-27T18:31:11.734Z,85.53
2022-12-27T18:33:50.671Z,83.68
2022-12-27T18:36:32.765Z,97.32
2022-12-27T18:39:03.271Z,92.50
2022-12-27T18:41:46.988Z,88.03
2022-12-27T18:44:27.906Z,88.72
2022-12-27T18:47:01.915Z,100.80
2022-12-27T18:49:33.655Z,95.32
2022-12-27T18:52:02.323Z,85.47
2022-12-27T18:54:29.349Z,93.00
2022-12-27T18:56:58.293Z,91.45
2022-12-27T18:59:35.810Z,87.10
2022-12-27T19:02:31.924Z,78.55
2022-12-27T19:05:20.665Z,95.22
2022-12-27T19:07:55.369Z,86.75
2022-12-27T19:10:27.836Z,88.65
2022-12-27T19:12:56.035Z,90.00
2022-12-27T19:15:27.951Z,91.65
2022-12-27T19:17:59.710Z,96.85
2022-12-27T19:20:30.591Z,87.93
2022-12-27T19:23:01.578Z,92.00
2022-12-27T19:25:34.148Z,90.15
2022-12-27T19:28:06.488Z,96.35
2022-12-27T19:30:46.313Z,96.32
2022-12-27T19:33:20.257Z,91.10
2022-12-27T19:35:47.401Z,90.95
2022-12-27T19:38:21.109Z,93.25
2022-12-27T19:43:16.538Z,80.78
2022-12-27T19:45:43.665Z,95.18
2022-12-27T19:48:11.499Z,94.63
2022-12-27T19:50:46.582Z,91.85
2022-12-27T19:53:18.840Z,93.60
2022-12-27T19:55:46.383Z,104.65
2022-12-27T19:58:27.128Z,93.30
2022-12-27T20:00:54.246Z,98.93
2022-12-27T20:03:21.384Z,93.28
2022-12-27T20:06:13.525Z,88.60
2022-12-27T20:08:48.222Z,83.80
2022-12-27T20:11:18.448Z,84.47
2022-12-27T20:13:46.208Z,84.07
2022-12-27T20:16:17.155Z,79.95
2022-12-27T20:18:44.589Z,86.88
2022-12-27T20:21:14.888Z,81.22
2022-12-27T20:23:42.168Z,78.88
2022-12-27T20:26:10.564Z,79.38
2022-12-27T20:28:38.140Z,77.38
2022-12-27T20:31:13.737Z,80.32
2022-12-27T20:33:41.104Z,81.93
2022-12-27T20:36:09.793Z,79.95
2022-12-27T20:38:40.143Z,85.85
2022-12-27T20:41:09.754Z,83.13
2022-12-27T20:43:37.075Z,81.40
2022-12-27T20:46:12.633Z,77.28
2022-12-27T20:48:41.852Z,88.63
2022-12-27T20:51:11.910Z,78.65
2022-12-27T20:53:39.038Z,85.32
2022-12-27T20:56:06.927Z,104.90
2022-12-27T20:58:34.497Z,90.93
2022-12-27T21:01:10.140Z,87.53
2022-12-27T21:03:38.394Z,88.72
2022-12-27T21:06:10.852Z,86.13
2022-12-27T21:08:45.433Z,85.55
2022-12-27T21:11:20.865Z,76.72
2022-12-27T21:13:48.952Z,85.43
2022-12-27T21:16:22.404Z,87.43
2022-12-27T21:18:49.991Z,78.43
2022-12-27T21:21:20.152Z,80.97
2022-12-27T21:23:48.422Z,84.70
2022-12-27T21:26:18.299Z,88.90
2022-12-27T21:28:45.877Z,82.30
2022-12-27T21:31:14.320Z,77.93
2022-12-27T21:33:42.361Z,88.45
2022-12-27T21:36:34.004Z,90.90
2022-12-27T21:39:02.267Z,77.43
2022-12-27T21:41:34.498Z,81.70
2022-12-27T21:44:02.714Z,92.72
2022-12-27T21:46:35.154Z,89.57
2022-12-27T21:49:07.924Z,88.32
2022-12-27T21:51:36.403Z,88.45
2022-12-27T21:54:04.026Z,89.85
2022-12-27T21:56:31.468Z,102.75
2022-12-27T21:59:00.052Z,91.95
2022-12-27T22:01:50.583Z,84.82
2022-12-27T22:04:22.187Z,92.38
2022-12-27T22:06:49.887Z,88.13
2022-12-27T22:09:17.023Z,87.97
2022-12-27T22:11:44.294Z,78.05
2022-12-27T22:14:11.605Z,75.57
2022-12-27T22:16:39.620Z,97.80
2022-12-27T22:19:12.223Z,94.70
2022-12-27T22:21:40.702Z,88.43
2022-12-27T22:24:12.694Z,100.93
2022-12-27T22:26:40.583Z,99.07
2022-12-27T22:29:08.072Z,87.28
2022-12-27T22:31:36.618Z,90.63
2022-12-27T22:34:04.849Z,87.78
2022-12-27T22:36:32.032Z,80.32
2022-12-27T22:39:00.050Z,77.07
2022-12-27T22:41:29.969Z,81.22
2022-12-27T22:43:59.866Z,120.78
2022-12-27T22:46:28.427Z,99.22
2022-12-27T22:48:57.852Z,73.93
2022-12-27T22:51:30.559Z,69.75
2022-12-27T22:53:58.907Z,77.85
2022-12-27T22:56:29.029Z,82.30
2022-12-27T22:58:56.530Z,76.90
2022-12-27T23:01:31.596Z,74.90
2022-12-27T23:04:01.359Z,73.20
2022-12-27T23:06:29.121Z,73.78
2022-12-27T23:08:56.505Z,78.28
2022-12-27T23:11:26.179Z,74.35
2022-12-27T23:14:06.224Z,89.47
2022-12-27T23:16:38.138Z,85.15
2022-12-27T23:19:05.708Z,83.20
2022-12-27T23:21:32.796Z,79.78
2022-12-27T23:23:59.889Z,77.65
2022-12-27T23:26:27.557Z,90.70
2022-12-27T23:28:55.264Z,85.90
2022-12-27T23:31:23.591Z,76.05
2022-12-27T23:33:51.429Z,82.97
2022-12-27T23:36:19.580Z,77.13
2022-12-27T23:38:47.024Z,73.68
2022-12-27T23:41:21.120Z,83.25
2022-12-27T23:43:53.756Z,79.65
2022-12-27T23:46:30.676Z,71.43
2022-12-27T23:49:00.619Z,77.78
2022-12-27T23:51:29.553Z,74.57
2022-12-27T23:53:57.163Z,79.72
2022-12-27T23:56:30.156Z,87.28
2022-12-27T23:58:59.544Z,86.15
